Time;durP1;ratioP1;P1;durP2;ratioP2;P2;SDS_P1;SDS_P2;PMS_P1;PMS_P2;Temp;Humidity;BMP_temperature;BMP_pressure;BME280_temperature;BME280_humidity;BME280_pressure;Samples;Min_cycle;Max_cycle;Signal;HPM_P1;HPM_P2
2023/10/09 00:02:06;;;;;;;18.95;6.03;;;20.70;99.90;;;;;;5056361;28;20028;-77
2023/10/09 00:04:31;;;;;;;14.10;5.82;;;21.10;99.90;;;;;;5037167;28;20128;-77
2023/10/09 00:06:59;;;;;;;10.88;5.57;;;20.80;99.90;;;;;;5056793;28;20080;-77
2023/10/09 00:11:56;;;;;;;12.48;6.22;;;20.80;99.90;;;;;;5056443;28;20519;-77
2023/10/09 00:14:33;;;;;;;18.50;7.93;;;20.70;99.90;;;;;;5056605;28;20087;-77
2023/10/09 00:17:16;;;;;;;14.25;6.95;;;21.00;99.90;;;;;;5056564;28;20047;-77
2023/10/09 00:19:43;;;;;;;12.75;6.50;;;21.00;99.90;;;;;;5057156;28;20049;-77
2023/10/09 00:22:17;;;;;;;15.80;6.50;;;20.60;99.90;;;;;;5040130;28;20036;-77
2023/10/09 00:24:45;;;;;;;17.48;7.43;;;20.90;99.90;;;;;;5039900;28;20036;-77
2023/10/09 00:27:12;;;;;;;12.98;7.32;;;;;;;;;;5056540;28;20079;-77
2023/10/09 00:29:45;;;;;;;19.42;7.03;;;21.00;99.90;;;;;;5040218;28;20048;-77
2023/10/09 00:32:26;;;;;;;17.27;8.27;;;21.10;99.90;;;;;;5056266;28;20090;-77
2023/10/09 00:34:52;;;;;;;17.33;9.15;;;21.20;99.90;;;;;;5056378;28;20076;-77
2023/10/09 00:37:23;;;;;;;13.85;7.75;;;21.20;99.90;;;;;;5056310;28;20044;-77
2023/10/09 00:39:55;;;;;;;10.38;6.05;;;21.00;99.90;;;;;;5055883;28;20119;-77
2023/10/09 00:42:33;;;;;;;15.50;8.05;;;21.00;99.90;;;;;;5039467;28;20085;-77
2023/10/09 00:45:04;;;;;;;18.13;9.60;;;21.00;99.90;;;;;;5056107;28;20047;-77
2023/10/09 00:47:34;;;;;;;19.85;9.43;;;20.60;99.90;;;;;;5039379;28;20068;-76
2023/10/09 00:50:08;;;;;;;22.42;10.02;;;21.10;99.90;;;;;;5055237;28;20036;-77
2023/10/09 00:52:51;;;;;;;16.67;8.80;;;20.60;99.90;;;;;;5055869;28;20048;-77
2023/10/09 00:56:18;;;;;;;21.00;11.27;;;20.80;99.90;;;;;;5056287;28;20040;-77
2023/10/09 00:58:12;;;;;;;27.92;11.57;;;21.20;99.90;;;;;;5045142;28;20289;-77
2023/10/09 01:08:35;;;;;;;27.52;12.35;;;21.20;99.90;;;;;;5055921;28;20435;-76
2023/10/09 01:11:10;;;;;;;22.63;11.27;;;;;;;;;;5055704;28;20051;-77
2023/10/09 01:16:18;;;;;;;22.40;12.88;;;20.70;99.90;;;;;;5055966;28;20044;-77
2023/10/09 01:18:49;;;;;;;28.58;13.60;;;20.70;99.90;;;;;;5039357;28;20066;-77
2023/10/09 01:21:17;;;;;;;25.08;12.75;;;20.50;99.90;;;;;;5055884;28;20461;-77
2023/10/09 01:26:25;;;;;;;24.83;13.23;;;20.60;99.90;;;;;;5055879;28;20050;-77
2023/10/09 01:28:57;;;;;;;25.70;13.30;;;21.20;99.90;;;;;;5055557;28;20370;-77
2023/10/09 01:31:26;;;;;;;25.58;14.18;;;21.20;99.90;;;;;;5055165;28;20044;-77
2023/10/09 01:33:59;;;;;;;35.35;16.33;;;20.60;99.90;;;;;;5055133;28;20047;-77
2023/10/09 01:36:33;;;;;;;33.35;16.10;;;20.50;99.90;;;;;;5038617;28;20162;-77
2023/10/09 01:39:08;;;;;;;36.80;15.63;;;21.20;99.90;;;;;;5038781;28;20094;-77
2023/10/09 01:41:34;;;;;;;29.98;15.00;;;20.40;99.90;;;;;;5055060;28;20123;-77
2023/10/09 01:44:10;;;;;;;32.78;15.95;;;;;;;;;;5038446;28;20123;-77
2023/10/09 01:46:36;;;;;;;34.58;17.13;;;20.80;99.90;;;;;;5038089;28;20082;-77
2023/10/09 01:49:08;;;;;;;32.88;17.95;;;21.30;99.90;;;;;;5054937;28;20110;-76
2023/10/09 01:51:38;;;;;;;35.67;17.95;;;;;;;;;;5054827;28;20512;-77
2023/10/09 01:54:04;;;;;;;34.97;16.60;;;20.90;99.90;;;;;;5054793;28;20044;-77
2023/10/09 01:56:29;;;;;;;40.42;19.85;;;21.00;99.90;;;;;;5054941;28;20040;-77
2023/10/09 01:58:57;;;;;;;38.33;18.80;;;;;;;;;;5054404;28;20633;-76
2023/10/09 02:01:23;;;;;;;42.80;19.90;;;21.40;99.90;;;;;;5054339;28;20076;-77
2023/10/09 02:03:51;;;;;;;36.95;18.02;;;20.50;99.90;;;;;;5054661;28;20036;-77
2023/10/09 02:06:27;;;;;;;43.90;20.83;;;21.00;99.90;;;;;;5054890;28;20117;-77
2023/10/09 02:08:54;;;;;;;42.08;20.45;;;20.70;99.90;;;;;;5037897;28;20070;-77
2023/10/09 02:11:24;;;;;;;44.15;20.17;;;;;;;;;;5054271;28;20131;-77
2023/10/09 02:14:01;;;;;;;42.40;20.48;;;21.30;99.90;;;;;;5054146;28;20052;-77
2023/10/09 02:16:29;;;;;;;50.55;23.13;;;21.40;99.90;;;;;;5054679;28;20131;-77
2023/10/09 02:19:07;;;;;;;39.45;20.95;;;21.30;99.90;;;;;;5054240;28;20396;-77
2023/10/09 02:21:33;;;;;;;47.05;23.88;;;20.70;99.90;;;;;;5053995;28;20519;-77
2023/10/09 02:24:09;;;;;;;44.78;20.95;;;20.90;99.90;;;;;;5054035;28;20044;-77
2023/10/09 02:31:35;;;;;;;58.55;25.33;;;21.10;99.90;;;;;;5053959;28;20044;-77
2023/10/09 02:34:05;;;;;;;43.50;23.40;;;21.10;99.90;;;;;;5054018;28;20490;-77
2023/10/09 02:36:31;;;;;;;44.47;23.63;;;;;;;;;;5054228;28;20404;-77
2023/10/09 02:38:57;;;;;;;42.05;22.38;;;;;;;;;;5054248;28;20044;-76
2023/10/09 02:41:28;;;;;;;48.08;24.02;;;;;;;;;;5053791;28;20519;-77
2023/10/09 02:43:55;;;;;;;46.10;24.38;;;;;;;;;;5037384;28;20039;-77
2023/10/09 02:46:28;;;;;;;43.47;23.83;;;20.60;99.90;;;;;;5054249;28;20502;-77
2023/10/09 02:48:56;;;;;;;56.75;26.00;;;20.70;99.90;;;;;;5054003;28;20075;-77
2023/10/09 02:53:57;;;;;;;54.10;26.15;;;20.70;99.90;;;;;;5060335;28;20075;-76
2023/10/09 02:59:07;;;;;;;54.35;27.33;;;21.10;99.90;;;;;;5071367;28;20135;-77
2023/10/09 03:01:34;;;;;;;43.85;24.02;;;20.60;99.90;;;;;;5055647;28;20082;-76
2023/10/09 03:04:02;;;;;;;49.78;25.92;;;21.50;99.90;;;;;;5054001;28;20488;-76
2023/10/09 03:06:32;;;;;;;40.92;22.90;;;21.10;99.90;;;;;;5037239;28;20040;-77
2023/10/09 03:08:57;;;;;;;51.85;27.13;;;20.80;99.90;;;;;;5054238;28;20111;-77
2023/10/09 03:11:26;;;;;;;55.17;26.85;;;21.20;99.90;;;;;;5053605;28;20123;-77
2023/10/09 03:13:52;;;;;;;60.83;28.10;;;21.70;99.90;;;;;;5053089;28;20086;-76
2023/10/09 03:16:21;;;;;;;55.85;28.58;;;21.10;99.90;;;;;;5053680;28;20048;-76
2023/10/09 03:18:52;;;;;;;53.28;26.50;;;20.70;99.90;;;;;;5053657;28;20128;-76
2023/10/09 03:21:21;;;;;;;54.05;25.88;;;21.60;99.90;;;;;;5053264;28;20040;-77
2023/10/09 03:23:50;;;;;;;47.80;25.60;;;21.10;99.90;;;;;;5053461;28;20075;-77
2023/10/09 03:26:20;;;;;;;54.90;27.52;;;21.30;99.90;;;;;;5053539;28;20028;-77
2023/10/09 03:28:47;;;;;;;55.97;29.02;;;20.70;99.90;;;;;;5053384;28;20086;-77
2023/10/09 03:31:12;;;;;;;56.38;30.52;;;21.30;99.90;;;;;;5036735;28;20041;-77
2023/10/09 03:33:39;;;;;;;63.42;31.23;;;20.80;99.90;;;;;;5053722;28;20123;-77
2023/10/09 03:36:09;;;;;;;52.08;27.77;;;20.90;99.90;;;;;;5053356;28;20094;-77
2023/10/09 03:38:36;;;;;;;55.58;28.67;;;22.00;99.90;;;;;;5053296;28;20105;-77
2023/10/09 03:41:05;;;;;;;47.78;27.20;;;21.20;99.90;;;;;;5053040;28;20075;-77
2023/10/09 03:43:37;;;;;;;50.17;26.40;;;20.90;99.90;;;;;;5052855;28;20063;-76
2023/10/09 03:46:04;;;;;;;54.55;27.13;;;21.50;99.90;;;;;;5053628;28;20123;-77
2023/10/09 03:48:36;;;;;;;48.15;24.90;;;;;;;;;;5053198;28;20040;-77
2023/10/09 03:51:09;;;;;;;41.15;23.83;;;;;;;;;;5053096;28;20076;-76
2023/10/09 03:53:42;;;;;;;43.70;24.33;;;21.90;99.90;;;;;;5036451;28;20534;-77
2023/10/09 03:56:11;;;;;;;36.35;20.30;;;22.60;99.90;;;;;;5053184;28;20043;-77
2023/10/09 03:58:45;;;;;;;41.47;22.60;;;21.10;99.90;;;;;;5053157;28;20041;-77
2023/10/09 04:01:58;;;;;;;37.40;20.63;;;21.70;99.90;;;;;;5053012;28;20096;-77
2023/10/09 04:04:06;;;;;;;36.30;19.00;;;21.60;99.90;;;;;;5045088;28;20056;-77
2023/10/09 04:06:32;;;;;;;36.65;19.33;;;22.60;99.90;;;;;;5036439;28;20036;-77
2023/10/09 04:11:48;;;;;;;28.13;16.23;;;22.60;99.90;;;;;;5052840;28;20052;-77
2023/10/09 04:14:24;;;;;;;30.23;16.38;;;21.50;99.90;;;;;;5052935;28;20079;-77
2023/10/09 04:17:03;;;;;;;26.15;15.65;;;22.70;99.90;;;;;;5053076;28;20036;-77
2023/10/09 04:19:29;;;;;;;25.80;14.82;;;21.70;99.90;;;;;;5052865;28;20040;-77
2023/10/09 04:21:58;;;;;;;30.10;13.90;;;;;;;;;;5052767;28;20032;-77
2023/10/09 04:24:24;;;;;;;26.27;14.00;;;;;;;;;;5053339;28;20045;-77
2023/10/09 04:26:57;;;;;;;24.42;13.55;;;22.00;99.90;;;;;;5055614;28;20041;-77
2023/10/09 04:29:26;;;;;;;24.43;13.13;;;21.50;99.90;;;;;;5039913;28;20040;-77
2023/10/09 04:31:56;;;;;;;22.38;12.90;;;23.00;99.90;;;;;;5055326;28;20279;-77
2023/10/09 04:37:44;;;;;;;22.02;12.32;;;21.60;99.90;;;;;;5055889;28;20500;-76
2023/10/09 04:39:47;;;;;;;25.65;11.50;;;;;;;;;;5042971;28;20078;-77
2023/10/09 04:47:38;;;;;;;24.10;11.88;;;22.60;99.90;;;;;;5053438;28;20483;-77
2023/10/09 04:50:14;;;;;;;30.10;12.98;;;22.00;99.90;;;;;;5039297;28;20040;-77
2023/10/09 05:02:56;;;;;;;23.27;10.77;;;21.90;99.90;;;;;;5055895;28;20044;-77
2023/10/09 05:08:28;;;;;;;25.58;10.27;;;21.70;99.90;;;;;;5055717;28;20127;-76
2023/10/09 05:16:13;;;;;;;23.48;10.35;;;21.90;99.90;;;;;;5055973;28;19974;-76
2023/10/09 05:19:28;;;;;;;20.92;9.45;;;23.20;99.90;;;;;;5055563;28;20036;-77
2023/10/09 05:21:58;;;;;;;24.27;11.32;;;21.70;99.90;;;;;;5060140;28;20139;-76
2023/10/09 05:24:26;;;;;;;24.13;10.40;;;22.20;99.90;;;;;;5038885;28;20082;-76
2023/10/09 05:26:52;;;;;;;21.15;10.07;;;21.90;99.90;;;;;;5038826;28;20040;-77
2023/10/09 05:32:05;;;;;;;21.50;9.50;;;23.00;99.90;;;;;;5035506;28;20049;-76
2023/10/09 05:34:36;;;;;;;21.42;9.82;;;21.90;99.90;;;;;;5019317;28;20110;-76
2023/10/09 05:37:22;;;;;;;22.52;10.02;;;21.50;99.90;;;;;;5018963;28;20083;-76
2023/10/09 05:40:53;;;;;;;19.48;10.00;;;22.40;99.90;;;;;;5035136;28;20126;-76
2023/10/09 05:42:45;;;;;;;22.77;10.45;;;22.20;99.90;;;;;;5018131;28;20037;-76
2023/10/09 06:08:38;;;;;;;22.75;10.00;;;22.60;99.90;;;;;;5034539;28;20053;-76
2023/10/09 06:11:38;;;;;;;27.67;10.93;;;;;;;;;;5034706;28;20416;-76
2023/10/09 06:14:04;;;;;;;26.50;9.95;;;21.80;99.90;;;;;;5034559;28;20049;-76
2023/10/09 06:19:07;;;;;;;30.67;10.65;;;22.00;99.90;;;;;;5034641;28;20057;-76
2023/10/09 06:24:33;;;;;;;26.92;11.00;;;22.70;99.90;;;;;;5034365;28;20040;-76
2023/10/09 06:29:50;;;;;;;19.92;9.35;;;23.40;99.90;;;;;;5035042;28;20367;-75
2023/10/09 06:32:34;;;;;;;25.58;8.90;;;23.20;99.90;;;;;;5033915;28;20041;-75
2023/10/09 06:35:21;;;;;;;22.88;9.43;;;22.30;99.90;;;;;;5034337;28;20036;-76
2023/10/09 06:43:07;;;;;;;25.38;9.60;;;22.80;99.90;;;;;;5034367;28;20385;-76
2023/10/09 06:45:44;;;;;;;21.25;9.40;;;23.20;99.90;;;;;;5034134;28;20099;-76
2023/10/09 06:48:55;;;;;;;18.65;9.63;;;22.80;99.90;;;;;;5033377;28;20033;-75
2023/10/09 06:51:03;;;;;;;21.45;9.10;;;23.20;99.90;;;;;;5019997;28;20140;-76
2023/10/09 06:53:58;;;;;;;;;;;22.80;99.90;;;;;;5018007;28;20040;-76
2023/10/09 06:56:26;;;;;;;22.13;9.07;;;22.90;99.90;;;;;;5033670;28;19946;-75
2023/10/09 07:04:18;;;;;;;26.67;10.80;;;22.10;99.90;;;;;;5033930;28;20037;-75
2023/10/09 07:30:35;;;;;;;22.45;9.40;;;21.80;99.90;;;;;;5033548;28;20128;-76
2023/10/09 07:32:54;;;;;;;24.45;9.30;;;23.10;99.90;;;;;;5035860;28;20512;-76
2023/10/09 07:36:06;;;;;;;25.52;9.65;;;22.20;99.90;;;;;;5037060;28;20040;-76
2023/10/09 07:38:19;;;;;;;28.95;9.35;;;22.20;99.90;;;;;;5026157;28;20127;-76
2023/10/09 07:40:56;;;;;;;22.85;9.63;;;22.80;99.90;;;;;;5034325;28;20049;-76
2023/10/09 07:43:28;;;;;;;28.27;9.88;;;23.00;99.90;;;;;;5018316;28;20485;-76
2023/10/09 07:48:27;;;;;;;22.63;9.70;;;23.70;99.90;;;;;;5034010;28;20084;-75
2023/10/09 07:50:58;;;;;;;20.88;9.38;;;23.60;99.90;;;;;;5033394;28;20076;-75
2023/10/09 07:53:28;;;;;;;23.63;9.55;;;23.40;99.90;;;;;;5016672;28;20504;-75
2023/10/09 07:55:55;;;;;;;24.75;9.93;;;23.00;99.90;;;;;;5033880;28;20041;-76
2023/10/09 07:58:25;;;;;;;25.13;9.48;;;23.50;99.90;;;;;;5016806;28;20086;-76
2023/10/09 08:01:07;;;;;;;26.13;9.60;;;22.40;99.90;;;;;;5035738;28;20048;-76
2023/10/09 08:03:36;;;;;;;25.48;10.02;;;23.60;99.90;;;;;;5036923;28;20063;-75
2023/10/09 08:17:13;;;;;;;27.08;9.65;;;23.40;99.90;;;;;;5036687;28;20044;-75
2023/10/09 08:19:53;;;;;;;23.40;9.93;;;22.40;99.90;;;;;;5036585;28;20512;-76
2023/10/09 08:24:57;;;;;;;25.38;10.05;;;23.00;99.90;;;;;;5036520;28;20049;-75
2023/10/09 08:30:28;;;;;;;28.00;11.52;;;22.20;99.90;;;;;;5036437;28;20084;-75
2023/10/09 08:33:03;;;;;;;23.60;9.38;;;22.10;99.90;;;;;;5020144;28;20124;-75
2023/10/09 08:35:47;;;;;;;28.73;10.68;;;22.40;99.90;;;;;;5036473;28;20037;-75
2023/10/09 08:38:26;;;;;;;28.23;9.65;;;22.00;99.90;;;;;;5036411;28;20040;-76
2023/10/09 08:40:58;;;;;;;21.45;8.68;;;23.60;99.90;;;;;;5036091;28;20124;-75
2023/10/09 08:43:24;;;;;;;24.27;9.35;;;;;;;;;;5036107;28;20044;-75
2023/10/09 08:45:54;;;;;;;21.63;9.32;;;21.20;99.90;;;;;;5036199;28;20040;-75
2023/10/09 08:48:26;;;;;;;24.50;9.55;;;23.50;99.90;;;;;;5036395;28;20095;-75
2023/10/09 08:50:54;;;;;;;26.05;9.40;;;22.10;99.90;;;;;;5035924;28;20040;-75
2023/10/09 08:53:21;;;;;;;26.67;9.57;;;23.70;99.90;;;;;;5035958;28;20127;-75
2023/10/09 08:55:47;;;;;;;27.40;9.57;;;22.10;99.90;;;;;;5036207;28;20037;-75
2023/10/09 08:58:24;;;;;;;22.95;9.15;;;22.90;99.90;;;;;;5035931;28;20051;-75
2023/10/09 09:00:51;;;;;;;27.08;8.75;;;22.40;99.90;;;;;;5019249;28;20072;-75
2023/10/09 09:03:18;;;;;;;27.58;9.85;;;23.20;99.90;;;;;;5036073;28;20102;-75
2023/10/09 09:05:51;;;;;;;21.42;7.72;;;22.80;99.90;;;;;;5035744;28;20048;-76
2023/10/09 09:08:25;;;;;;;22.38;8.60;;;22.20;99.90;;;;;;5035725;28;20037;-76
2023/10/09 09:11:14;;;;;;;23.75;9.43;;;22.30;99.90;;;;;;5035178;28;20037;-75
2023/10/09 09:13:48;;;;;;;26.67;8.50;;;23.30;99.90;;;;;;5035882;28;20045;-76
2023/10/09 09:16:22;;;;;;;28.52;9.55;;;23.80;99.90;;;;;;5036030;28;20051;-76
2023/10/09 09:19:17;;;;;;;20.85;7.95;;;23.40;99.90;;;;;;5035547;28;20037;-75
2023/10/09 09:21:49;;;;;;;26.05;9.30;;;24.10;99.90;;;;;;5035401;28;20041;-76
2023/10/09 09:24:30;;;;;;;29.90;9.27;;;23.00;99.90;;;;;;5035546;28;20029;-76
2023/10/09 09:27:09;;;;;;;24.65;8.85;;;23.60;99.90;;;;;;5035530;28;20040;-76
2023/10/09 09:29:38;;;;;;;23.20;8.25;;;23.00;99.90;;;;;;5020583;28;20481;-76
2023/10/09 09:32:23;;;;;;;23.38;9.07;;;22.50;99.90;;;;;;5035474;28;20037;-76
2023/10/09 09:34:56;;;;;;;24.90;9.32;;;22.60;99.90;;;;;;5035436;28;20048;-75
2023/10/09 09:37:28;;;;;;;21.88;9.07;;;24.10;99.90;;;;;;5035190;28;20120;-76
2023/10/09 09:39:56;;;;;;;27.33;8.40;;;22.70;99.90;;;;;;5035207;28;20044;-76
2023/10/09 09:42:26;;;;;;;20.77;8.85;;;22.80;99.90;;;;;;5034953;28;20094;-76
2023/10/09 09:44:53;;;;;;;24.75;9.35;;;;;;;;;;5018394;28;20124;-75
2023/10/09 09:47:29;;;;;;;27.08;8.82;;;23.60;99.90;;;;;;5035272;28;20048;-76
2023/10/09 09:50:12;;;;;;;18.58;8.20;;;24.30;99.90;;;;;;5018269;28;20429;-75
2023/10/09 09:52:38;;;;;;;22.98;8.60;;;24.20;99.90;;;;;;5034985;28;20049;-75
2023/10/09 09:55:07;;;;;;;25.27;9.52;;;24.20;99.90;;;;;;5035189;28;20048;-76
2023/10/09 09:57:39;;;;;;;26.08;8.32;;;;;;;;;;5034791;28;20040;-76
2023/10/09 10:00:17;;;;;;;23.70;8.75;;;22.80;99.90;;;;;;5018433;28;20049;-76
2023/10/09 10:02:45;;;;;;;30.33;9.05;;;22.60;99.90;;;;;;5034688;28;20116;-75
2023/10/09 10:05:15;;;;;;;26.00;8.90;;;22.70;99.90;;;;;;5034681;28;20039;-76
2023/10/09 10:07:49;;;;;;;24.95;8.70;;;22.90;99.90;;;;;;5034764;28;20041;-76
2023/10/09 10:10:38;;;;;;;25.83;8.98;;;23.40;99.90;;;;;;5018205;28;20119;-76
2023/10/09 10:13:05;;;;;;;25.58;9.95;;;23.00;99.90;;;;;;5034763;28;20432;-76
2023/10/09 10:15:58;;;;;;;23.40;9.05;;;22.60;99.90;;;;;;5034534;28;20047;-76
2023/10/09 10:18:24;;;;;;;31.73;9.63;;;;;;;;;;5018056;28;20067;-76
2023/10/09 10:21:14;;;;;;;23.42;8.88;;;23.40;99.90;;;;;;5034098;28;20055;-76
2023/10/09 10:23:40;;;;;;;22.05;9.00;;;24.30;99.90;;;;;;5033408;28;20095;-76
2023/10/09 10:26:27;;;;;;;23.17;8.40;;;24.00;99.90;;;;;;5034648;28;20053;-76
2023/10/09 10:29:22;;;;;;;28.80;9.50;;;24.50;99.90;;;;;;5034302;28;20037;-76
2023/10/09 10:31:56;;;;;;;25.73;9.10;;;24.50;99.90;;;;;;5034080;28;20044;-76
2023/10/09 10:34:25;;;;;;;28.48;8.80;;;22.90;99.90;;;;;;5034110;28;20185;-76
2023/10/09 10:36:58;;;;;;;25.08;8.90;;;22.90;99.90;;;;;;5034480;28;20409;-76
2023/10/09 10:39:42;;;;;;;22.42;8.90;;;22.80;99.90;;;;;;5034378;28;20459;-76
2023/10/09 10:42:09;;;;;;;25.58;11.10;;;23.30;99.90;;;;;;5017326;28;20546;-76
2023/10/09 10:44:38;;;;;;;23.65;9.00;;;24.20;99.90;;;;;;5033967;28;20041;-76
2023/10/09 10:47:22;;;;;;;32.13;9.65;;;23.50;99.90;;;;;;5033893;28;20044;-76
2023/10/09 10:49:52;;;;;;;28.20;9.35;;;23.00;99.90;;;;;;5033931;28;20036;-76
2023/10/09 10:52:44;;;;;;;27.95;9.20;;;23.30;99.90;;;;;;5017336;28;20083;-76
2023/10/09 10:58:02;;;;;;;22.33;7.72;;;24.60;99.90;;;;;;5033870;28;20155;-76
2023/10/09 11:03:23;;;;;;;23.70;7.05;;;24.10;99.90;;;;;;5033971;28;20473;-76
2023/10/09 11:05:52;;;;;;;20.48;6.63;;;24.50;99.90;;;;;;5034031;28;20037;-76
2023/10/09 11:08:23;;;;;;;24.63;6.93;;;24.60;99.90;;;;;;5033677;28;20078;-76
2023/10/09 11:10:51;;;;;;;15.95;5.80;;;23.30;99.90;;;;;;5033546;28;20044;-76
2023/10/09 11:13:52;;;;;;;17.65;7.15;;;23.10;99.90;;;;;;5016891;28;20043;-76
2023/10/09 11:16:41;;;;;;;14.88;5.93;;;24.30;99.90;;;;;;5033668;28;20048;-76
2023/10/09 11:19:28;;;;;;;19.38;5.97;;;24.60;99.90;;;;;;5033561;28;20049;-76
2023/10/09 11:22:14;;;;;;;13.30;5.57;;;23.40;99.90;;;;;;5033448;28;20483;-76
2023/10/09 11:24:43;;;;;;;17.10;5.70;;;24.10;99.90;;;;;;5033640;28;20052;-76
2023/10/09 11:27:18;;;;;;;15.27;5.90;;;23.10;99.90;;;;;;5033577;28;20037;-76
2023/10/09 11:32:22;;;;;;;19.40;6.63;;;23.20;99.90;;;;;;5033528;28;20048;-76
2023/10/09 11:34:51;;;;;;;15.30;5.28;;;24.50;99.90;;;;;;5034553;28;20037;-76
2023/10/09 11:40:00;;;;;;;17.13;5.70;;;24.40;99.90;;;;;;5037330;28;20052;-76
2023/10/09 11:42:57;;;;;;;16.67;5.03;;;23.10;99.90;;;;;;5037096;28;20045;-76
2023/10/09 11:45:30;;;;;;;11.45;4.75;;;24.30;99.90;;;;;;5036816;28;20049;-76
2023/10/09 11:47:58;;;;;;;20.90;5.18;;;24.20;99.90;;;;;;5037336;28;20086;-76
2023/10/09 11:55:49;;;;;;;12.43;3.65;;;24.20;99.90;;;;;;5037195;28;20232;-76
2023/10/09 11:58:24;;;;;;;22.38;6.40;;;23.40;99.90;;;;;;5037165;28;20135;-76
2023/10/09 12:00:58;;;;;;;13.43;4.55;;;23.40;99.90;;;;;;5020273;28;20481;-76
2023/10/09 12:03:29;;;;;;;9.90;4.50;;;23.80;99.90;;;;;;5037024;28;20037;-75
2023/10/09 12:06:11;;;;;;;12.35;4.68;;;24.00;99.90;;;;;;5037304;28;20063;-76
2023/10/09 12:08:38;;;;;;;11.23;4.57;;;25.00;99.90;;;;;;5020862;28;20373;-76
2023/10/09 12:11:08;;;;;;;15.68;5.00;;;25.00;99.90;;;;;;5022758;28;20489;-76
2023/10/09 12:13:34;;;;;;;9.75;4.03;;;25.40;99.90;;;;;;5023521;28;20041;-76
2023/10/09 12:15:59;;;;;;;15.43;4.53;;;24.90;99.90;;;;;;5041240;28;20037;-76
2023/10/09 12:18:25;;;;;;;10.73;3.67;;;24.80;99.90;;;;;;5038893;28;20048;-76
2023/10/09 12:20:52;;;;;;;10.50;3.85;;;25.00;99.90;;;;;;5036629;28;20045;-76
2023/10/09 12:23:19;;;;;;;7.57;3.50;;;24.30;99.90;;;;;;5036896;28;20448;-76
2023/10/09 12:25:45;;;;;;;11.95;3.45;;;24.60;99.90;;;;;;5036606;28;20048;-76
2023/10/09 12:28:14;;;;;;;12.18;3.10;;;24.70;99.90;;;;;;5036424;28;20036;-76
2023/10/09 12:30:41;;;;;;;8.45;2.60;;;25.20;99.90;;;;;;5037013;28;20048;-76
2023/10/09 12:33:08;;;;;;;11.27;4.05;;;24.60;99.90;;;;;;5019880;28;20041;-76
2023/10/09 12:35:38;;;;;;;12.43;4.25;;;24.50;99.90;;;;;;5036502;28;20563;-76
2023/10/09 12:38:12;;;;;;;8.60;3.22;;;24.80;99.90;;;;;;5036686;28;20094;-75
2023/10/09 12:40:40;;;;;;;8.32;3.15;;;24.40;99.90;;;;;;5036070;28;20520;-76
2023/10/09 12:43:15;;;;;;;11.25;3.22;;;24.60;99.90;;;;;;5036500;28;20432;-75
2023/10/09 12:45:41;;;;;;;6.57;3.03;;;24.50;99.90;;;;;;5035816;28;20048;-76
2023/10/09 12:48:09;;;;;;;9.20;3.00;;;24.90;99.90;;;;;;5035593;28;20488;-76
2023/10/09 12:50:41;;;;;;;11.38;3.75;;;24.50;99.90;;;;;;5035970;28;20056;-76
2023/10/09 12:53:08;;;;;;;10.98;3.38;;;24.10;99.90;;;;;;5036300;28;20415;-76
2023/10/09 12:55:41;;;;;;;9.07;3.35;;;24.20;99.90;;;;;;5036054;28;20044;-76
2023/10/09 12:58:08;;;;;;;14.93;3.88;;;24.70;99.90;;;;;;5035917;28;20044;-76
2023/10/09 13:00:37;;;;;;;16.02;11.90;;;25.00;99.90;;;;;;5035923;28;20068;-76
2023/10/09 13:03:13;;;;;;;10.90;4.45;;;24.10;99.90;;;;;;5035939;28;20142;-76
2023/10/09 13:05:46;;;;;;;13.95;3.60;;;24.50;99.90;;;;;;5019442;28;20037;-76
2023/10/09 13:08:11;;;;;;;10.50;4.05;;;24.20;99.90;;;;;;5019432;28;20128;-76
2023/10/09 13:10:38;;;;;;;14.35;3.75;;;24.70;99.90;;;;;;5035822;28;20053;-76
2023/10/09 13:13:06;;;;;;;13.25;3.53;;;24.20;99.90;;;;;;5035849;28;20400;-76
2023/10/09 13:15:42;;;;;;;10.57;2.88;;;;;;;;;;5035902;28;20524;-75
2023/10/09 13:18:08;;;;;;;12.15;3.63;;;24.80;99.90;;;;;;5019069;28;20122;-76
2023/10/09 13:20:36;;;;;;;13.43;3.33;;;;;;;;;;5018841;28;20099;-76
2023/10/09 13:23:01;;;;;;;6.15;2.97;;;23.90;99.90;;;;;;5019362;28;20128;-76
2023/10/09 13:25:38;;;;;;;9.23;3.35;;;24.30;99.90;;;;;;5035851;28;20167;-76
2023/10/09 13:28:03;;;;;;;11.82;3.70;;;24.80;99.90;;;;;;5036020;28;20052;-76
2023/10/09 13:30:29;;;;;;;11.45;3.60;;;23.80;99.90;;;;;;5035773;28;20413;-76
2023/10/09 13:32:55;;;;;;;12.35;3.58;;;24.30;99.90;;;;;;5035436;28;20496;-76
2023/10/09 13:35:37;;;;;;;10.65;4.18;;;;;;;;;;5035700;28;20451;-76
2023/10/09 13:38:09;;;;;;;12.10;3.80;;;24.00;99.90;;;;;;5035336;28;20128;-76
2023/10/09 13:40:37;;;;;;;11.80;3.95;;;23.90;99.90;;;;;;5035147;28;20130;-76
2023/10/09 13:43:02;;;;;;;10.07;3.50;;;23.80;99.90;;;;;;5035746;28;20045;-76
2023/10/09 13:45:28;;;;;;;9.82;3.58;;;24.40;99.90;;;;;;5035143;28;20116;-76
2023/10/09 13:47:55;;;;;;;10.75;3.45;;;24.20;99.90;;;;;;5018792;28;20037;-76
2023/10/09 13:50:24;;;;;;;15.90;4.30;;;23.90;99.90;;;;;;5018341;28;20048;-76
2023/10/09 13:52:53;;;;;;;11.07;3.80;;;24.00;99.90;;;;;;5035303;28;20451;-76
2023/10/09 13:55:20;;;;;;;9.18;3.20;;;;;;;;;;5034973;28;20072;-76
2023/10/09 13:57:46;;;;;;;9.77;3.50;;;23.70;99.90;;;;;;5034743;28;20045;-76
2023/10/09 14:00:32;;;;;;;8.15;2.78;;;24.50;99.90;;;;;;5034934;28;20455;-76
2023/10/09 14:03:01;;;;;;;10.77;3.72;;;24.30;99.90;;;;;;5035281;28;20037;-76
2023/10/09 14:05:28;;;;;;;10.50;2.72;;;23.80;99.90;;;;;;5018588;28;20296;-76
2023/10/09 14:07:54;;;;;;;10.88;3.92;;;24.20;99.90;;;;;;5018273;28;20098;-76
2023/10/09 14:10:25;;;;;;;10.55;4.00;;;24.20;99.90;;;;;;5034485;28;20681;-76
2023/10/09 14:12:54;;;;;;;7.88;3.10;;;24.00;99.90;;;;;;5034529;28;20087;-76
2023/10/09 14:15:20;;;;;;;15.05;4.15;;;24.60;99.90;;;;;;5034863;28;20148;-76
2023/10/09 14:17:46;;;;;;;13.40;3.83;;;24.30;99.90;;;;;;5034778;28;20049;-76
2023/10/09 14:20:31;;;;;;;14.20;3.38;;;24.10;99.90;;;;;;5034394;28;20072;-77
2023/10/09 14:23:00;;;;;;;10.68;3.47;;;23.00;99.90;;;;;;5018170;28;20082;-75
2023/10/09 14:25:29;;;;;;;19.15;4.63;;;24.50;99.90;;;;;;5034384;28;20090;-76
2023/10/09 14:27:55;;;;;;;10.18;3.15;;;24.10;99.90;;;;;;5034207;28;20524;-76
2023/10/09 14:30:30;;;;;;;12.68;3.55;;;;;;;;;;5034132;28;20073;-76
2023/10/09 14:32:57;;;;;;;12.77;3.97;;;23.90;99.90;;;;;;5034244;28;20055;-76
2023/10/09 14:35:26;;;;;;;11.30;3.83;;;23.80;99.90;;;;;;5017714;28;20041;-76
2023/10/09 14:37:53;;;;;;;8.13;3.60;;;24.40;99.90;;;;;;5034152;28;20051;-76
2023/10/09 14:40:29;;;;;;;5.95;3.00;;;23.80;99.90;;;;;;5033800;28;20052;-76
2023/10/09 14:42:57;;;;;;;7.93;3.30;;;24.00;99.90;;;;;;5034081;28;20081;-76
2023/10/09 14:45:26;;;;;;;9.05;3.50;;;24.40;99.90;;;;;;5034011;28;20083;-76
2023/10/09 14:47:56;;;;;;;8.98;4.28;;;24.40;99.90;;;;;;5033938;28;20033;-76
2023/10/09 14:50:22;;;;;;;10.43;3.25;;;23.90;99.90;;;;;;5033841;28;20044;-76
2023/10/09 14:52:50;;;;;;;8.43;3.08;;;24.30;99.90;;;;;;5033886;28;20044;-77
2023/10/09 14:55:28;;;;;;;10.40;3.03;;;24.30;99.90;;;;;;5034023;28;20052;-76
2023/10/09 14:57:55;;;;;;;14.25;3.67;;;;;;;;;;5033831;28;20167;-76
2023/10/09 15:00:23;;;;;;;14.00;7.28;;;24.30;99.90;;;;;;5033609;28;20134;-77
2023/10/09 15:02:52;;;;;;;10.10;3.65;;;24.30;99.90;;;;;;5017588;28;20403;-77
2023/10/09 15:05:18;;;;;;;10.57;3.55;;;24.10;99.90;;;;;;5033813;28;20174;-76
2023/10/09 15:07:45;;;;;;;12.00;3.95;;;24.20;99.90;;;;;;5017221;28;20564;-76
2023/10/09 15:10:15;;;;;;;7.85;3.60;;;24.00;99.90;;;;;;5034809;28;20045;-75
2023/10/09 15:12:42;;;;;;;8.45;3.38;;;23.90;99.90;;;;;;5051984;28;20037;-76
2023/10/09 15:15:13;;;;;;;8.85;3.15;;;24.10;99.90;;;;;;5034791;28;20108;-76
2023/10/09 15:17:43;;;;;;;8.55;4.88;;;24.10;99.90;;;;;;5035902;28;20080;-76
2023/10/09 15:20:13;;;;;;;4.95;2.78;;;24.20;99.90;;;;;;5034580;28;20045;-78
2023/10/09 15:22:43;;;;;;;11.18;3.92;;;24.10;99.90;;;;;;5017826;28;20400;-76
2023/10/09 15:25:14;;;;;;;6.60;2.80;;;23.90;99.90;;;;;;5051445;28;20517;-76
2023/10/09 15:27:40;;;;;;;6.57;3.50;;;;;;;;;;5033692;28;20049;-76
2023/10/09 15:30:13;;;;;;;6.10;2.28;;;24.00;99.90;;;;;;5033473;28;20045;-76
2023/10/09 15:32:42;;;;;;;5.38;2.35;;;23.80;99.90;;;;;;5034581;28;20048;-76
2023/10/09 15:35:12;;;;;;;7.05;3.40;;;24.20;99.90;;;;;;5018494;28;20041;-76
2023/10/09 15:37:40;;;;;;;9.90;3.05;;;22.70;99.90;;;;;;5035374;28;20423;-76
2023/10/09 15:40:13;;;;;;;10.10;3.50;;;24.10;99.90;;;;;;5034381;28;20552;-76
2023/10/09 15:42:39;;;;;;;8.80;3.05;;;;;;;;;;5033184;28;20531;-76
2023/10/09 15:45:06;;;;;;;9.38;3.35;;;23.60;99.90;;;;;;5033344;28;20041;-76
2023/10/09 15:47:36;;;;;;;8.98;3.00;;;23.70;99.90;;;;;;5017119;28;20041;-76